createdAt,value
2023-02-27T00:01:44.803Z,102108.59
2023-02-27T00:04:16.138Z,102110.81
2023-02-27T00:06:47.444Z,102140.38
2023-02-27T00:09:18.703Z,102141.19
2023-02-27T00:11:49.968Z,102128.34
2023-02-27T00:14:21.520Z,102141.91
2023-02-27T00:16:52.811Z,102139.53
2023-02-27T00:19:24.142Z,102127.16
2023-02-27T00:21:55.410Z,102154.47
2023-02-27T00:24:26.704Z,102162.16
2023-02-27T00:26:58.040Z,102149.09
2023-02-27T00:29:29.359Z,102121.22
2023-02-27T00:32:00.735Z,102147.00
2023-02-27T00:34:32.192Z,102153.19
2023-02-27T00:37:03.648Z,102147.91
2023-02-27T00:39:35.099Z,102120.13
2023-02-27T00:42:06.386Z,102128.47
2023-02-27T00:44:38.495Z,102145.50
2023-02-27T00:47:09.767Z,102145.41
2023-02-27T00:49:41.106Z,102119.31
2023-02-27T00:52:12.404Z,102139.75
2023-02-27T00:54:43.641Z,102137.56
2023-02-27T00:57:14.948Z,102142.75
2023-02-27T00:59:46.566Z,102140.94
2023-02-27T01:02:18.293Z,102154.72
2023-02-27T01:04:49.613Z,102152.72
2023-02-27T01:07:20.997Z,102156.13
2023-02-27T01:09:52.300Z,102146.44
2023-02-27T01:12:23.594Z,102149.13
2023-02-27T01:14:54.848Z,102144.75
2023-02-27T01:17:26.126Z,102132.19
2023-02-27T01:19:57.524Z,102142.16
2023-02-27T01:22:28.797Z,102139.47
2023-02-27T01:25:00.329Z,102141.06
2023-02-27T01:27:31.669Z,102133.19
2023-02-27T01:30:04.004Z,102127.44
2023-02-27T01:32:35.417Z,102129.59
2023-02-27T01:35:07.313Z,102136.38
2023-02-27T01:37:38.859Z,102137.19
2023-02-27T01:40:10.994Z,102133.44
2023-02-27T01:42:42.268Z,102132.63
2023-02-27T01:45:29.581Z,102104.75
2023-02-27T01:48:08.534Z,102124.66
2023-02-27T01:50:46.460Z,102125.47
2023-02-27T01:53:19.661Z,102125.25
2023-02-27T01:55:57.264Z,102122.38
2023-02-27T01:58:28.709Z,102116.59
2023-02-27T02:01:00.073Z,102129.06
2023-02-27T02:03:35.643Z,102129.84
2023-02-27T02:06:07.757Z,102137.53
2023-02-27T02:08:43.837Z,102141.59
2023-02-27T02:11:18.109Z,102139.00
2023-02-27T02:13:54.928Z,102134.63
2023-02-27T02:16:50.478Z,102130.44
2023-02-27T02:19:25.078Z,102133.94
2023-02-27T02:22:15.944Z,102127.06
2023-02-27T02:25:24.272Z,102140.00
2023-02-27T02:28:12.299Z,102139.72
2023-02-27T02:31:11.535Z,102125.47
2023-02-27T02:34:04.051Z,102135.03
2023-02-27T02:37:03.491Z,102131.44
2023-02-27T02:39:49.580Z,102131.34
2023-02-27T02:42:53.454Z,102129.44
2023-02-27T02:45:49.521Z,102132.72
2023-02-27T02:48:30.396Z,102131.44
2023-02-27T02:51:12.922Z,102135.81
2023-02-27T02:53:59.640Z,102137.41
2023-02-27T02:56:39.772Z,102067.34
2023-02-27T02:59:11.002Z,102145.88
2023-02-27T03:01:49.058Z,102126.91
2023-02-27T03:04:27.864Z,102140.59
2023-02-27T03:07:33.493Z,102145.75
2023-02-27T03:10:09.059Z,102141.38
2023-02-27T03:12:44.094Z,102136.88
2023-02-27T03:15:23.598Z,102129.50
2023-02-27T03:18:02.715Z,102140.88
2023-02-27T03:20:39.591Z,102150.00
2023-02-27T03:23:19.080Z,102118.03
2023-02-27T03:25:51.511Z,102148.31
2023-02-27T03:28:27.626Z,102150.72
2023-02-27T03:31:07.370Z,102155.88
2023-02-27T03:34:16.872Z,102145.00
2023-02-27T03:36:58.159Z,102158.28
2023-02-27T03:39:58.878Z,102148.50
2023-02-27T03:42:36.185Z,102127.56
2023-02-27T03:45:18.217Z,102142.69
2023-02-27T03:47:49.756Z,102146.19
2023-02-27T03:50:21.396Z,102149.88
2023-02-27T03:52:53.036Z,102131.94
2023-02-27T03:55:35.090Z,102155.25
2023-02-27T03:58:06.701Z,102160.53
2023-02-27T04:00:38.135Z,102162.94
2023-02-27T04:03:09.695Z,102166.31
2023-02-27T04:05:41.451Z,102149.25
2023-02-27T04:08:39.542Z,102161.81
2023-02-27T04:11:25.602Z,102173.75
2023-02-27T04:14:14.670Z,102178.03
2023-02-27T04:17:33.315Z,102165.25
2023-02-27T04:20:37.533Z,102186.69
2023-02-27T04:23:30.125Z,102190.66
2023-02-27T04:26:30.432Z,102197.41
2023-02-27T04:29:04.439Z,102198.22
2023-02-27T04:31:53.224Z,102200.69
2023-02-27T04:34:32.949Z,102196.09
2023-02-27T04:37:12.427Z,102187.84
2023-02-27T04:40:27.125Z,102206.56
2023-02-27T04:43:01.172Z,102209.16
2023-02-27T04:45:35.562Z,102203.19
2023-02-27T04:48:33.068Z,102148.56
2023-02-27T04:51:13.347Z,102202.16
2023-02-27T04:53:52.339Z,102208.47
2023-02-27T04:56:29.876Z,102200.28
2023-02-27T04:59:19.401Z,102203.75
2023-02-27T05:01:59.907Z,102208.31
2023-02-27T05:04:35.814Z,102190.03
2023-02-27T05:07:11.463Z,102203.03
2023-02-27T05:09:58.225Z,102176.69
2023-02-27T05:12:35.922Z,102209.91
2023-02-27T05:15:13.356Z,102214.88
2023-02-27T05:17:58.469Z,102221.72
2023-02-27T05:20:56.266Z,102214.88
2023-02-27T05:23:48.537Z,102220.84
2023-02-27T05:26:24.180Z,102216.44
2023-02-27T05:29:05.378Z,102226.78
2023-02-27T05:31:57.244Z,102222.41
2023-02-27T05:34:44.408Z,102225.44
2023-02-27T05:37:24.722Z,102231.59
2023-02-27T05:39:58.555Z,102229.03
2023-02-27T05:42:35.848Z,102233.19
2023-02-27T05:45:14.820Z,102227.00
2023-02-27T05:47:57.976Z,102203.44
2023-02-27T05:50:33.777Z,102230.16
2023-02-27T05:53:09.368Z,102231.75
2023-02-27T05:55:48.681Z,102228.72
2023-02-27T05:58:24.601Z,102238.50
2023-02-27T06:01:05.052Z,102239.28
2023-02-27T06:03:38.111Z,102223.34
2023-02-27T06:06:14.865Z,102241.88
2023-02-27T06:08:46.550Z,102214.13
2023-02-27T06:11:18.064Z,102209.66
2023-02-27T06:13:49.387Z,102235.91
2023-02-27T06:16:20.841Z,102246.25
2023-02-27T06:18:52.432Z,102255.81
2023-02-27T06:21:23.882Z,102262.00
2023-02-27T06:23:55.808Z,102258.53
2023-02-27T06:26:27.470Z,102265.72
2023-02-27T06:28:59.820Z,102267.72
2023-02-27T06:31:31.121Z,102251.88
2023-02-27T06:34:02.804Z,102249.41
2023-02-27T06:36:34.154Z,102274.22
2023-02-27T06:39:06.179Z,102275.13
2023-02-27T06:41:37.710Z,102273.63
2023-02-27T06:44:09.205Z,102266.75
2023-02-27T06:46:40.720Z,102232.50
2023-02-27T06:49:12.116Z,102272.31
2023-02-27T06:51:45.064Z,102249.81
2023-02-27T06:54:16.517Z,102244.84
2023-02-27T06:56:48.186Z,102257.28
2023-02-27T06:59:19.526Z,102266.31
2023-02-27T07:01:50.915Z,102276.13
2023-02-27T07:04:22.284Z,102288.22
2023-02-27T07:07:35.533Z,102275.97
2023-02-27T07:09:45.190Z,102260.78
2023-02-27T07:12:16.546Z,102283.16
2023-02-27T07:14:47.793Z,102280.56
2023-02-27T07:17:19.035Z,102292.94
2023-02-27T07:19:50.404Z,102293.03
2023-02-27T07:22:21.714Z,102300.19
2023-02-27T07:24:53.104Z,102306.34
2023-02-27T07:27:24.465Z,102296.88
2023-02-27T07:29:55.790Z,102296.94
2023-02-27T07:32:27.881Z,102295.28
2023-02-27T07:34:59.185Z,102298.09
2023-02-27T07:37:30.480Z,102289.06
2023-02-27T07:40:01.799Z,102302.63
2023-02-27T07:42:33.895Z,102298.28
2023-02-27T07:45:05.900Z,102311.22
2023-02-27T07:47:37.289Z,102306.44
2023-02-27T07:50:09.674Z,102317.19
2023-02-27T07:52:42.034Z,102308.78
2023-02-27T07:55:14.259Z,102303.34
2023-02-27T07:57:45.791Z,102313.63
2023-02-27T08:00:17.718Z,102310.88
2023-02-27T08:02:49.065Z,102293.44
2023-02-27T08:05:20.713Z,102314.69
2023-02-27T08:07:52.045Z,102310.44
2023-02-27T08:10:23.561Z,102290.88
2023-02-27T08:12:55.043Z,102323.94
2023-02-27T08:15:26.354Z,102325.75
2023-02-27T08:17:57.784Z,102317.78
2023-02-27T08:20:29.210Z,102329.81
2023-02-27T08:23:00.554Z,102325.41
2023-02-27T08:25:31.880Z,102331.44
2023-02-27T08:28:03.503Z,102313.59
2023-02-27T08:30:34.879Z,102327.09
2023-02-27T08:33:06.686Z,102322.38
2023-02-27T08:35:38.113Z,102310.53
2023-02-27T08:38:09.484Z,102329.00
2023-02-27T08:40:40.802Z,102329.69
2023-02-27T08:43:12.086Z,102323.19
2023-02-27T08:45:43.394Z,102321.81
2023-02-27T08:48:15.774Z,102307.50
2023-02-27T08:50:47.404Z,102307.75
2023-02-27T08:53:18.921Z,102327.56
2023-02-27T08:55:51.713Z,102326.28
2023-02-27T08:58:22.975Z,102326.91
2023-02-27T09:00:54.945Z,102312.41
2023-02-27T09:03:28.578Z,102328.31
2023-02-27T09:06:00.158Z,102330.84
2023-02-27T09:08:31.406Z,102331.63
2023-02-27T09:11:03.097Z,102331.88
2023-02-27T09:13:34.387Z,102332.09
2023-02-27T09:16:06.142Z,102337.28
2023-02-27T09:18:37.496Z,102345.47
2023-02-27T09:21:08.899Z,102334.03
2023-02-27T09:23:40.439Z,102340.81
2023-02-27T09:26:11.758Z,102353.56
2023-02-27T09:28:43.563Z,102358.31
2023-02-27T09:31:15.117Z,102342.84
2023-02-27T09:33:46.397Z,102356.16
2023-02-27T09:36:18.627Z,102348.88
2023-02-27T09:38:50.030Z,102338.34
2023-02-27T09:41:46.044Z,102345.81
2023-02-27T09:44:45.250Z,102341.50
2023-02-27T09:47:26.307Z,102341.75
2023-02-27T09:50:09.018Z,102339.25
2023-02-27T09:52:40.296Z,102342.72
2023-02-27T09:55:18.903Z,102310.81
2023-02-27T09:58:07.779Z,102342.22
2023-02-27T10:00:49.455Z,102341.69
2023-02-27T10:03:39.401Z,102349.72
2023-02-27T10:06:29.378Z,102334.91
2023-02-27T10:09:25.205Z,102336.97
2023-02-27T10:12:02.419Z,102340.63
2023-02-27T10:14:33.652Z,102339.00
2023-02-27T10:17:14.015Z,102328.56
2023-02-27T10:19:47.998Z,102342.91
2023-02-27T10:22:31.254Z,102309.25
2023-02-27T10:25:18.093Z,102337.28
2023-02-27T10:28:09.106Z,102341.03
2023-02-27T10:30:44.103Z,102342.16
2023-02-27T10:33:32.130Z,102340.50
2023-02-27T10:36:12.474Z,102340.66
2023-02-27T10:38:51.797Z,102345.19
2023-02-27T10:41:24.293Z,102353.38
2023-02-27T10:43:58.489Z,102361.47
2023-02-27T10:46:32.419Z,102362.63
2023-02-27T10:49:16.893Z,102362.69
2023-02-27T10:52:12.013Z,102363.59
2023-02-27T10:54:45.178Z,102336.00
2023-02-27T10:57:26.674Z,102361.28
2023-02-27T11:00:01.304Z,102351.50
2023-02-27T11:02:38.888Z,102360.09
2023-02-27T11:05:26.291Z,102359.44
2023-02-27T11:08:12.109Z,102343.25
2023-02-27T11:10:55.043Z,102370.25
2023-02-27T11:13:30.238Z,102377.56
2023-02-27T11:16:23.427Z,102367.13
2023-02-27T11:19:23.020Z,102357.56
2023-02-27T11:22:16.332Z,102360.84
2023-02-27T11:24:49.260Z,102347.97
2023-02-27T11:27:26.645Z,102386.50
2023-02-27T11:30:28.168Z,102371.53
2023-02-27T11:33:02.228Z,102362.94
2023-02-27T11:35:36.570Z,102349.66
2023-02-27T11:38:18.172Z,102368.63
2023-02-27T11:40:53.756Z,102367.97
2023-02-27T11:43:29.243Z,102371.81
2023-02-27T11:46:33.424Z,102373.69
2023-02-27T11:49:21.430Z,102372.00
2023-02-27T11:52:05.540Z,102335.19
2023-02-27T11:54:45.479Z,102333.97
2023-02-27T11:57:34.420Z,102353.16
2023-02-27T12:00:20.217Z,102353.47
2023-02-27T12:03:13.995Z,102362.69
2023-02-27T12:05:56.137Z,102341.50
2023-02-27T12:08:30.367Z,102364.88
2023-02-27T12:11:14.864Z,102353.63
2023-02-27T12:13:55.621Z,102345.69
2023-02-27T12:16:37.810Z,102345.91
2023-02-27T12:19:25.000Z,102349.66
2023-02-27T12:22:05.724Z,102323.88
2023-02-27T12:24:43.875Z,102322.88
2023-02-27T12:27:21.167Z,102339.81
2023-02-27T12:30:00.187Z,102323.88
2023-02-27T12:32:48.649Z,102337.41
2023-02-27T12:35:27.007Z,102335.66
2023-02-27T12:37:59.549Z,102316.22
2023-02-27T12:40:54.765Z,102336.78
2023-02-27T12:43:49.539Z,102336.78
2023-02-27T12:46:33.947Z,102338.50
2023-02-27T12:49:38.186Z,102333.69
2023-02-27T12:52:51.264Z,102346.72
2023-02-27T12:55:36.991Z,102340.28
2023-02-27T12:58:45.460Z,102331.47
2023-02-27T13:01:50.493Z,102336.72
2023-02-27T13:04:33.891Z,102346.44
2023-02-27T13:07:13.357Z,102329.03
2023-02-27T13:09:50.405Z,102311.47
2023-02-27T13:12:33.710Z,102329.41
2023-02-27T13:15:27.947Z,102327.59
2023-02-27T13:18:31.109Z,102324.88
2023-02-27T13:21:13.548Z,102318.66
2023-02-27T13:23:58.440Z,102322.09
2023-02-27T13:26:43.902Z,102304.28
2023-02-27T13:29:18.144Z,102321.31
2023-02-27T13:32:04.411Z,102306.22
2023-02-27T13:34:49.824Z,102309.47
2023-02-27T13:37:21.312Z,102304.81
2023-02-27T13:39:56.183Z,102327.75
2023-02-27T13:42:27.634Z,102324.88
2023-02-27T13:45:01.322Z,102296.63
2023-02-27T13:47:47.900Z,102334.13
2023-02-27T13:50:21.024Z,102336.81
2023-02-27T13:52:52.797Z,102335.97
2023-02-27T13:55:26.769Z,102331.84
2023-02-27T13:58:00.415Z,102319.59
2023-02-27T14:00:34.484Z,102306.50
2023-02-27T14:03:19.819Z,102304.00
2023-02-27T14:05:54.065Z,102322.63
2023-02-27T14:08:27.818Z,102325.41
2023-02-27T14:11:16.532Z,102318.41
2023-02-27T14:13:50.830Z,102337.00
2023-02-27T14:16:37.482Z,102331.69
2023-02-27T14:19:27.964Z,102333.31
2023-02-27T14:22:24.433Z,102329.66
2023-02-27T14:25:39.264Z,102326.13
2023-02-27T14:28:30.981Z,102338.34
2023-02-27T14:31:04.093Z,102332.16
2023-02-27T14:33:48.228Z,102340.38
2023-02-27T14:36:22.540Z,102342.25
2023-02-27T14:38:58.725Z,102342.00
2023-02-27T14:41:51.413Z,102338.03
2023-02-27T14:44:28.512Z,102340.56
2023-02-27T14:47:03.330Z,102340.69
2023-02-27T14:49:36.014Z,102325.41
2023-02-27T14:52:12.930Z,102337.75
2023-02-27T14:54:45.317Z,102326.84
2023-02-27T14:57:24.196Z,102329.72
2023-02-27T14:59:55.648Z,102354.69
2023-02-27T15:02:34.619Z,102343.28
2023-02-27T15:05:05.890Z,102364.31
2023-02-27T15:07:38.372Z,102358.69
2023-02-27T15:10:17.032Z,102357.63
2023-02-27T15:12:48.476Z,102349.41
2023-02-27T15:15:21.322Z,102359.78
2023-02-27T15:17:54.877Z,102342.69
2023-02-27T15:20:34.455Z,102339.09
2023-02-27T15:23:26.320Z,102348.75
2023-02-27T15:25:59.541Z,102329.13
2023-02-27T15:28:37.222Z,102347.69
2023-02-27T15:31:17.662Z,102343.00
2023-02-27T15:33:50.622Z,102348.41
2023-02-27T15:36:25.370Z,102343.03
2023-02-27T15:39:12.021Z,102350.03
2023-02-27T15:41:54.565Z,102329.47
2023-02-27T15:44:54.285Z,102342.13
2023-02-27T15:47:28.871Z,102339.47
2023-02-27T15:50:07.110Z,102343.78
2023-02-27T15:53:07.488Z,102352.47
2023-02-27T15:55:42.742Z,102343.34
2023-02-27T15:58:22.250Z,102359.78
2023-02-27T16:01:05.309Z,102351.66
2023-02-27T16:03:45.032Z,102355.00
2023-02-27T16:06:20.006Z,102361.13
2023-02-27T16:08:55.155Z,102340.59
2023-02-27T16:11:37.531Z,102361.06
2023-02-27T16:14:42.464Z,102365.44
2023-02-27T16:17:31.601Z,102362.63
2023-02-27T16:20:37.444Z,102369.56
2023-02-27T16:23:28.521Z,102368.59
2023-02-27T16:26:23.633Z,102368.44
2023-02-27T16:29:20.706Z,102369.13
2023-02-27T16:31:54.708Z,102374.28
2023-02-27T16:34:45.582Z,102378.56
2023-02-27T16:37:41.078Z,102376.63
2023-02-27T16:40:24.172Z,102359.50
2023-02-27T16:42:56.372Z,102362.91
2023-02-27T16:45:29.105Z,102371.75
2023-02-27T16:48:00.557Z,102378.81
2023-02-27T16:50:38.413Z,102371.59
2023-02-27T16:53:09.720Z,102378.56
2023-02-27T16:55:43.335Z,102364.19
2023-02-27T16:58:15.958Z,102377.47
2023-02-27T17:00:47.471Z,102373.84
2023-02-27T17:03:18.774Z,102369.38
2023-02-27T17:05:50.299Z,102354.81
2023-02-27T17:08:22.241Z,102363.59
2023-02-27T17:10:53.613Z,102371.47
2023-02-27T17:13:25.673Z,102371.09
2023-02-27T17:15:57.497Z,102348.31
2023-02-27T17:18:28.902Z,102372.81
2023-02-27T17:21:01.784Z,102368.56
2023-02-27T17:23:33.095Z,102377.84
2023-02-27T17:26:05.584Z,102384.25
2023-02-27T17:28:36.863Z,102373.97
2023-02-27T17:31:09.722Z,102378.81
2023-02-27T17:33:44.759Z,102359.50
2023-02-27T17:36:17.917Z,102374.41
2023-02-27T17:39:00.445Z,102378.44
2023-02-27T17:41:32.818Z,102370.06
2023-02-27T17:44:04.176Z,102359.91
2023-02-27T17:46:35.611Z,102372.97
2023-02-27T17:49:07.652Z,102358.34
2023-02-27T17:51:38.979Z,102370.50
2023-02-27T17:54:10.322Z,102348.53
2023-02-27T17:56:41.848Z,102367.78
2023-02-27T17:59:13.195Z,102366.59
2023-02-27T18:01:44.564Z,102382.94
2023-02-27T18:04:17.311Z,102381.63
2023-02-27T18:06:50.467Z,102389.97
2023-02-27T18:09:21.748Z,102393.25
2023-02-27T18:11:53.060Z,102388.53
2023-02-27T18:14:25.019Z,102380.34
2023-02-27T18:16:56.416Z,102388.72
2023-02-27T18:19:32.264Z,102374.22
2023-02-27T18:22:03.836Z,102378.44
2023-02-27T18:24:37.894Z,102364.69
2023-02-27T18:27:09.202Z,102386.59
2023-02-27T18:29:40.539Z,102396.06
2023-02-27T18:32:12.707Z,102375.53
2023-02-27T18:34:44.414Z,102388.06
2023-02-27T18:37:15.723Z,102386.34
2023-02-27T18:39:47.127Z,102374.63
2023-02-27T18:42:18.404Z,102391.56
2023-02-27T18:44:49.787Z,102391.44
2023-02-27T18:47:21.112Z,102396.81
2023-02-27T18:49:52.484Z,102396.69
2023-02-27T18:52:23.819Z,102395.72
2023-02-27T18:54:55.265Z,102399.16
2023-02-27T18:57:26.718Z,102382.16
2023-02-27T18:59:58.168Z,102403.56
2023-02-27T19:02:29.552Z,102405.38
2023-02-27T19:05:01.164Z,102405.38
2023-02-27T19:07:32.449Z,102403.50
2023-02-27T19:10:05.053Z,102407.16
2023-02-27T19:12:36.733Z,102404.59
2023-02-27T19:15:09.132Z,102390.34
2023-02-27T19:17:40.482Z,102395.72
2023-02-27T19:20:16.324Z,102412.22
2023-02-27T19:22:48.199Z,102418.69
2023-02-27T19:25:20.337Z,102410.69
2023-02-27T19:27:56.127Z,102422.41
2023-02-27T19:30:27.499Z,102422.66
2023-02-27T19:32:59.102Z,102425.47
2023-02-27T19:35:30.517Z,102429.13
2023-02-27T19:38:01.826Z,102407.84
2023-02-27T19:40:33.503Z,102391.97
2023-02-27T19:43:04.837Z,102429.56
2023-02-27T19:45:40.609Z,102433.28
2023-02-27T19:48:15.003Z,102426.38
2023-02-27T19:50:46.445Z,102430.00
2023-02-27T19:53:17.810Z,102433.53
2023-02-27T19:55:58.806Z,102412.06
2023-02-27T19:58:30.892Z,102402.34
2023-02-27T20:01:04.240Z,102430.06
2023-02-27T20:03:36.840Z,102416.59
2023-02-27T20:06:15.519Z,102408.59
2023-02-27T20:08:46.896Z,102427.50
2023-02-27T20:11:20.679Z,102430.31
2023-02-27T20:13:52.024Z,102423.28
2023-02-27T20:16:26.146Z,102432.38
2023-02-27T20:18:57.694Z,102440.41
2023-02-27T20:21:29.931Z,102441.34
2023-02-27T20:24:02.044Z,102432.69
2023-02-27T20:26:36.313Z,102433.72
2023-02-27T20:29:20.254Z,102440.03
2023-02-27T20:31:53.060Z,102434.91
2023-02-27T20:34:26.359Z,102435.88
2023-02-27T20:36:58.081Z,102431.41
2023-02-27T20:39:29.583Z,102434.22
2023-02-27T20:42:02.009Z,102429.72
2023-02-27T20:44:33.493Z,102438.75
2023-02-27T20:47:04.833Z,102440.53
2023-02-27T20:49:36.551Z,102438.81
2023-02-27T20:52:08.336Z,102413.16
2023-02-27T20:54:39.644Z,102436.34
2023-02-27T20:57:10.970Z,102425.88
2023-02-27T20:59:42.358Z,102436.59
2023-02-27T21:02:13.638Z,102431.34
2023-02-27T21:04:47.168Z,102420.63
2023-02-27T21:07:23.321Z,102433.13
2023-02-27T21:09:54.671Z,102431.47
2023-02-27T21:12:25.966Z,102434.09
2023-02-27T21:14:57.276Z,102437.63
2023-02-27T21:17:28.603Z,102435.72
2023-02-27T21:19:59.897Z,102441.72
2023-02-27T21:22:32.072Z,102443.16
2023-02-27T21:25:03.579Z,102439.34
2023-02-27T21:27:34.912Z,102446.25
2023-02-27T21:30:06.968Z,102456.50
2023-02-27T21:32:38.239Z,102442.91
2023-02-27T21:35:10.094Z,102452.97
2023-02-27T21:37:46.608Z,102452.31
2023-02-27T21:40:17.981Z,102446.38
2023-02-27T21:42:49.588Z,102439.28
2023-02-27T21:45:21.067Z,102441.25
2023-02-27T21:47:52.817Z,102448.53
2023-02-27T21:50:24.077Z,102420.00
2023-02-27T21:52:55.353Z,102448.72
2023-02-27T21:55:26.622Z,102440.84
2023-02-27T21:57:58.004Z,102445.25
2023-02-27T22:00:30.622Z,102441.59
2023-02-27T22:03:01.955Z,102447.88
2023-02-27T22:05:33.237Z,102435.41
2023-02-27T22:08:04.604Z,102442.63
2023-02-27T22:10:45.778Z,102442.56
2023-02-27T22:13:17.070Z,102414.78
2023-02-27T22:15:48.669Z,102443.41
2023-02-27T22:18:20.664Z,102444.22
2023-02-27T22:20:51.971Z,102445.06
2023-02-27T22:23:23.292Z,102441.59
2023-02-27T22:26:02.753Z,102421.09
2023-02-27T22:28:34.955Z,102439.81
2023-02-27T22:31:07.506Z,102445.06
2023-02-27T22:33:40.315Z,102443.41
2023-02-27T22:36:14.719Z,102426.69
2023-02-27T22:38:46.491Z,102442.56
2023-02-27T22:41:21.065Z,102452.09
2023-02-27T22:43:52.902Z,102442.38
2023-02-27T22:46:33.668Z,102445.78
2023-02-27T22:49:08.642Z,102447.44
2023-02-27T22:51:40.738Z,102444.81
2023-02-27T22:54:14.137Z,102441.31
2023-02-27T22:56:45.435Z,102447.44
2023-02-27T22:59:16.751Z,102449.19
2023-02-27T23:01:48.878Z,102447.31
2023-02-27T23:04:22.121Z,102449.94
2023-02-27T23:06:56.398Z,102449.00
2023-02-27T23:09:27.815Z,102444.59
2023-02-27T23:12:02.001Z,102389.00
2023-02-27T23:14:33.685Z,102416.88
2023-02-27T23:17:04.953Z,102456.75
2023-02-27T23:19:37.424Z,102438.78
2023-02-27T23:22:08.725Z,102464.50
2023-02-27T23:24:40.691Z,102454.78
2023-02-27T23:27:25.494Z,102445.66
2023-02-27T23:29:57.805Z,102458.16
2023-02-27T23:32:29.091Z,102462.38
2023-02-27T23:35:00.432Z,102456.25
2023-02-27T23:37:31.685Z,102468.66
2023-02-27T23:40:06.484Z,102426.75
2023-02-27T23:42:37.759Z,102452.56
2023-02-27T23:45:09.586Z,102459.69
2023-02-27T23:47:51.714Z,102464.19
2023-02-27T23:50:26.096Z,102447.22
2023-02-27T23:52:59.155Z,102454.44
2023-02-27T23:55:33.319Z,102452.56
2023-02-27T23:58:07.066Z,102455.25
